sensor_id;sensor_type;location;lat;lon;timestamp;P1;durP1;ratioP1;P2;durP2;ratioP2
9976;SDS011;5029;47.378;11.776;2022-08-01T00:04:10;3.50;;;3.07;;
9976;SDS011;5029;47.378;11.776;2022-08-01T00:09:14;3.30;;;2.97;;
9976;SDS011;5029;47.378;11.776;2022-08-01T00:14:26;4.27;;;2.60;;
9976;SDS011;5029;47.378;11.776;2022-08-01T00:19:33;6.63;;;3.13;;
9976;SDS011;5029;47.378;11.776;2022-08-01T00:24:36;5.43;;;3.10;;
9976;SDS011;5029;47.378;11.776;2022-08-01T00:29:41;4.30;;;3.40;;
9976;SDS011;5029;47.378;11.776;2022-08-01T00:35:05;4.87;;;3.57;;
9976;SDS011;5029;47.378;11.776;2022-08-01T00:40:12;4.13;;;3.73;;
9976;SDS011;5029;47.378;11.776;2022-08-01T00:45:18;3.67;;;2.93;;
9976;SDS011;5029;47.378;11.776;2022-08-01T00:50:22;3.50;;;3.20;;
9976;SDS011;5029;47.378;11.776;2022-08-01T00:55:26;5.57;;;3.40;;
9976;SDS011;5029;47.378;11.776;2022-08-01T01:00:31;4.70;;;3.30;;
9976;SDS011;5029;47.378;11.776;2022-08-01T01:05:56;4.10;;;2.90;;
9976;SDS011;5029;47.378;11.776;2022-08-01T01:11:11;4.87;;;3.13;;
9976;SDS011;5029;47.378;11.776;2022-08-01T01:16:19;3.90;;;3.60;;
9976;SDS011;5029;47.378;11.776;2022-08-01T01:21:29;5.57;;;3.37;;
9976;SDS011;5029;47.378;11.776;2022-08-01T01:26:50;4.03;;;3.70;;
9976;SDS011;5029;47.378;11.776;2022-08-01T01:32:04;5.37;;;3.37;;
9976;SDS011;5029;47.378;11.776;2022-08-01T01:37:10;4.00;;;3.60;;
9976;SDS011;5029;47.378;11.776;2022-08-01T01:42:17;3.50;;;3.20;;
9976;SDS011;5029;47.378;11.776;2022-08-01T01:47:23;3.57;;;2.93;;
9976;SDS011;5029;47.378;11.776;2022-08-01T01:52:28;5.30;;;3.43;;
9976;SDS011;5029;47.378;11.776;2022-08-01T01:57:35;4.67;;;3.33;;
9976;SDS011;5029;47.378;11.776;2022-08-01T02:02:43;5.23;;;3.40;;
9976;SDS011;5029;47.378;11.776;2022-08-01T02:07:48;3.97;;;3.63;;
9976;SDS011;5029;47.378;11.776;2022-08-01T02:13:00;3.83;;;3.50;;
9976;SDS011;5029;47.378;11.776;2022-08-01T02:18:07;3.63;;;3.33;;
9976;SDS011;5029;47.378;11.776;2022-08-01T02:23:13;5.20;;;3.33;;
9976;SDS011;5029;47.378;11.776;2022-08-01T02:28:17;6.20;;;3.40;;
9976;SDS011;5029;47.378;11.776;2022-08-01T02:33:34;4.53;;;3.53;;
9976;SDS011;5029;47.378;11.776;2022-08-01T02:38:40;4.90;;;3.67;;
9976;SDS011;5029;47.378;11.776;2022-08-01T02:43:46;3.80;;;3.50;;
9976;SDS011;5029;47.378;11.776;2022-08-01T02:48:55;3.97;;;3.30;;
9976;SDS011;5029;47.378;11.776;2022-08-01T02:54:02;4.87;;;3.50;;
9976;SDS011;5029;47.378;11.776;2022-08-01T02:59:09;4.97;;;3.63;;
9976;SDS011;5029;47.378;11.776;2022-08-01T03:04:20;3.73;;;3.43;;
9976;SDS011;5029;47.378;11.776;2022-08-01T03:09:26;3.80;;;3.33;;
9976;SDS011;5029;47.378;11.776;2022-08-01T03:14:32;4.00;;;3.40;;
9976;SDS011;5029;47.378;11.776;2022-08-01T03:19:42;4.87;;;3.63;;
9976;SDS011;5029;47.378;11.776;2022-08-01T03:24:49;4.30;;;3.60;;
9976;SDS011;5029;47.378;11.776;2022-08-01T03:29:57;5.30;;;3.50;;
9976;SDS011;5029;47.378;11.776;2022-08-01T03:35:06;3.90;;;3.53;;
9976;SDS011;5029;47.378;11.776;2022-08-01T03:40:11;4.30;;;3.90;;
9976;SDS011;5029;47.378;11.776;2022-08-01T03:45:22;4.13;;;3.33;;
9976;SDS011;5029;47.378;11.776;2022-08-01T03:50:30;6.13;;;3.93;;
9976;SDS011;5029;47.378;11.776;2022-08-01T03:55:36;6.60;;;3.90;;
9976;SDS011;5029;47.378;11.776;2022-08-01T04:00:41;3.87;;;3.57;;
9976;SDS011;5029;47.378;11.776;2022-08-01T04:05:47;4.67;;;3.67;;
9976;SDS011;5029;47.378;11.776;2022-08-01T04:10:50;4.00;;;3.70;;
9976;SDS011;5029;47.378;11.776;2022-08-01T04:15:55;6.03;;;3.90;;
9976;SDS011;5029;47.378;11.776;2022-08-01T04:21:00;4.50;;;3.50;;
9976;SDS011;5029;47.378;11.776;2022-08-01T04:26:03;3.60;;;3.30;;
9976;SDS011;5029;47.378;11.776;2022-08-01T04:31:08;4.43;;;4.00;;
9976;SDS011;5029;47.378;11.776;2022-08-01T04:36:15;5.60;;;3.93;;
9976;SDS011;5029;47.378;11.776;2022-08-01T04:41:22;3.90;;;3.53;;
9976;SDS011;5029;47.378;11.776;2022-08-01T04:46:27;3.97;;;3.57;;
9976;SDS011;5029;47.378;11.776;2022-08-01T04:51:33;3.47;;;3.17;;
9976;SDS011;5029;47.378;11.776;2022-08-01T04:56:38;4.10;;;3.67;;
9976;SDS011;5029;47.378;11.776;2022-08-01T05:01:47;3.70;;;3.40;;
9976;SDS011;5029;47.378;11.776;2022-08-01T05:06:53;4.07;;;3.57;;
9976;SDS011;5029;47.378;11.776;2022-08-01T05:11:57;4.60;;;3.57;;
9976;SDS011;5029;47.378;11.776;2022-08-01T05:17:01;6.03;;;3.63;;
9976;SDS011;5029;47.378;11.776;2022-08-01T05:22:08;3.90;;;3.50;;
9976;SDS011;5029;47.378;11.776;2022-08-01T05:27:12;6.73;;;3.10;;
9976;SDS011;5029;47.378;11.776;2022-08-01T05:32:16;4.73;;;3.67;;
9976;SDS011;5029;47.378;11.776;2022-08-01T05:37:21;4.60;;;3.97;;
9976;SDS011;5029;47.378;11.776;2022-08-01T05:42:25;5.50;;;4.20;;
9976;SDS011;5029;47.378;11.776;2022-08-01T05:47:29;6.43;;;4.30;;
9976;SDS011;5029;47.378;11.776;2022-08-01T05:52:34;3.67;;;3.37;;
9976;SDS011;5029;47.378;11.776;2022-08-01T05:57:38;5.00;;;4.50;;
9976;SDS011;5029;47.378;11.776;2022-08-01T06:02:41;4.00;;;3.60;;
9976;SDS011;5029;47.378;11.776;2022-08-01T06:07:52;4.43;;;3.50;;
9976;SDS011;5029;47.378;11.776;2022-08-01T06:13:06;3.87;;;3.50;;
9976;SDS011;5029;47.378;11.776;2022-08-01T06:18:09;3.53;;;3.23;;
9976;SDS011;5029;47.378;11.776;2022-08-01T06:23:14;3.40;;;3.10;;
9976;SDS011;5029;47.378;11.776;2022-08-01T06:28:33;6.23;;;3.07;;
9976;SDS011;5029;47.378;11.776;2022-08-01T06:33:36;3.23;;;3.00;;
9976;SDS011;5029;47.378;11.776;2022-08-01T06:38:41;3.53;;;3.23;;
9976;SDS011;5029;47.378;11.776;2022-08-01T06:43:45;7.13;;;3.23;;
9976;SDS011;5029;47.378;11.776;2022-08-01T06:48:48;4.83;;;4.03;;
9976;SDS011;5029;47.378;11.776;2022-08-01T06:53:53;3.60;;;3.30;;
9976;SDS011;5029;47.378;11.776;2022-08-01T06:58:57;4.07;;;3.70;;
9976;SDS011;5029;47.378;11.776;2022-08-01T07:04:02;6.87;;;3.90;;
9976;SDS011;5029;47.378;11.776;2022-08-01T07:09:08;3.60;;;3.30;;
9976;SDS011;5029;47.378;11.776;2022-08-01T07:14:15;5.27;;;3.10;;
9976;SDS011;5029;47.378;11.776;2022-08-01T07:19:18;3.63;;;3.20;;
9976;SDS011;5029;47.378;11.776;2022-08-01T07:24:23;5.77;;;3.63;;
9976;SDS011;5029;47.378;11.776;2022-08-01T07:29:29;5.73;;;3.10;;
9976;SDS011;5029;47.378;11.776;2022-08-01T07:34:35;3.50;;;3.20;;
9976;SDS011;5029;47.378;11.776;2022-08-01T07:39:40;3.67;;;3.33;;
9976;SDS011;5029;47.378;11.776;2022-08-01T07:44:43;3.83;;;3.03;;
9976;SDS011;5029;47.378;11.776;2022-08-01T07:49:47;4.80;;;3.07;;
9976;SDS011;5029;47.378;11.776;2022-08-01T07:54:52;3.93;;;3.03;;
9976;SDS011;5029;47.378;11.776;2022-08-01T07:59:55;3.67;;;3.37;;
9976;SDS011;5029;47.378;11.776;2022-08-01T08:04:59;4.97;;;2.93;;
9976;SDS011;5029;47.378;11.776;2022-08-01T08:10:05;3.03;;;2.83;;
9976;SDS011;5029;47.378;11.776;2022-08-01T08:15:09;4.83;;;2.97;;
9976;SDS011;5029;47.378;11.776;2022-08-01T08:20:13;3.50;;;2.67;;
9976;SDS011;5029;47.378;11.776;2022-08-01T08:25:18;3.00;;;2.70;;
9976;SDS011;5029;47.378;11.776;2022-08-01T08:30:27;4.13;;;2.63;;
9976;SDS011;5029;47.378;11.776;2022-08-01T08:35:30;4.20;;;2.40;;
9976;SDS011;5029;47.378;11.776;2022-08-01T08:40:55;4.50;;;2.60;;
9976;SDS011;5029;47.378;11.776;2022-08-01T08:46:00;2.47;;;2.27;;
9976;SDS011;5029;47.378;11.776;2022-08-01T08:51:04;3.37;;;2.67;;
9976;SDS011;5029;47.378;11.776;2022-08-01T08:56:12;2.80;;;2.50;;
9976;SDS011;5029;47.378;11.776;2022-08-01T09:01:16;2.77;;;2.53;;
9976;SDS011;5029;47.378;11.776;2022-08-01T09:06:23;4.00;;;2.47;;
9976;SDS011;5029;47.378;11.776;2022-08-01T09:11:29;2.80;;;2.60;;
9976;SDS011;5029;47.378;11.776;2022-08-01T09:16:34;3.33;;;2.53;;
9976;SDS011;5029;47.378;11.776;2022-08-01T09:21:39;3.17;;;2.30;;
9976;SDS011;5029;47.378;11.776;2022-08-01T09:26:44;2.57;;;2.17;;
9976;SDS011;5029;47.378;11.776;2022-08-01T09:31:49;2.60;;;2.40;;
9976;SDS011;5029;47.378;11.776;2022-08-01T09:36:54;3.22;;;2.30;;
9976;SDS011;5029;47.378;11.776;2022-08-01T09:47:36;2.40;;;2.00;;
9976;SDS011;5029;47.378;11.776;2022-08-01T09:52:40;2.30;;;2.05;;
9976;SDS011;5029;47.378;11.776;2022-08-01T09:57:55;3.72;;;2.85;;
9976;SDS011;5029;47.378;11.776;2022-08-01T10:03:17;3.10;;;2.30;;
9976;SDS011;5029;47.378;11.776;2022-08-01T10:08:24;3.60;;;2.10;;
9976;SDS011;5029;47.378;11.776;2022-08-01T10:13:30;2.20;;;2.00;;
9976;SDS011;5029;47.378;11.776;2022-08-01T10:18:37;3.92;;;2.20;;
9976;SDS011;5029;47.378;11.776;2022-08-01T10:23:44;3.60;;;2.20;;
9976;SDS011;5029;47.378;11.776;2022-08-01T10:28:53;2.28;;;2.05;;
9976;SDS011;5029;47.378;11.776;2022-08-01T10:34:01;2.38;;;2.17;;
9976;SDS011;5029;47.378;11.776;2022-08-01T10:39:05;2.40;;;2.20;;
9976;SDS011;5029;47.378;11.776;2022-08-01T10:44:10;3.22;;;2.20;;
9976;SDS011;5029;47.378;11.776;2022-08-01T10:49:14;2.50;;;2.30;;
9976;SDS011;5029;47.378;11.776;2022-08-01T10:54:20;2.53;;;2.00;;
9976;SDS011;5029;47.378;11.776;2022-08-01T10:59:30;2.53;;;1.85;;
9976;SDS011;5029;47.378;11.776;2022-08-01T11:04:54;2.60;;;2.15;;
9976;SDS011;5029;47.378;11.776;2022-08-01T11:10:03;4.97;;;2.10;;
9976;SDS011;5029;47.378;11.776;2022-08-01T11:15:20;2.60;;;2.00;;
9976;SDS011;5029;47.378;11.776;2022-08-01T11:20:31;4.72;;;2.97;;
9976;SDS011;5029;47.378;11.776;2022-08-01T11:31:34;2.60;;;1.60;;
9976;SDS011;5029;47.378;11.776;2022-08-01T11:36:38;3.25;;;2.08;;
9976;SDS011;5029;47.378;11.776;2022-08-01T11:42:18;2.33;;;1.90;;
9976;SDS011;5029;47.378;11.776;2022-08-01T11:52:50;3.97;;;2.08;;
9976;SDS011;5029;47.378;11.776;2022-08-01T11:58:00;2.72;;;1.80;;
9976;SDS011;5029;47.378;11.776;2022-08-01T12:03:07;3.78;;;1.65;;
9976;SDS011;5029;47.378;11.776;2022-08-01T12:08:24;4.85;;;2.05;;
9976;SDS011;5029;47.378;11.776;2022-08-01T12:13:29;2.05;;;1.80;;
9976;SDS011;5029;47.378;11.776;2022-08-01T12:18:44;2.22;;;1.80;;
9976;SDS011;5029;47.378;11.776;2022-08-01T12:23:59;3.17;;;1.80;;
9976;SDS011;5029;47.378;11.776;2022-08-01T12:29:03;2.10;;;1.70;;
9976;SDS011;5029;47.378;11.776;2022-08-01T12:34:26;2.10;;;1.90;;
9976;SDS011;5029;47.378;11.776;2022-08-01T12:39:32;2.15;;;1.95;;
9976;SDS011;5029;47.378;11.776;2022-08-01T12:44:40;3.58;;;2.30;;
9976;SDS011;5029;47.378;11.776;2022-08-01T12:49:48;2.42;;;1.90;;
9976;SDS011;5029;47.378;11.776;2022-08-01T12:55:02;3.28;;;2.03;;
9976;SDS011;5029;47.378;11.776;2022-08-01T13:00:13;2.63;;;1.85;;
9976;SDS011;5029;47.378;11.776;2022-08-01T13:05:20;2.38;;;2.00;;
9976;SDS011;5029;47.378;11.776;2022-08-01T13:10:28;4.32;;;2.33;;
9976;SDS011;5029;47.378;11.776;2022-08-01T13:15:33;2.50;;;2.13;;
9976;SDS011;5029;47.378;11.776;2022-08-01T13:20:43;2.47;;;2.28;;
9976;SDS011;5029;47.378;11.776;2022-08-01T13:25:53;3.30;;;2.13;;
9976;SDS011;5029;47.378;11.776;2022-08-01T13:30:58;4.47;;;2.13;;
9976;SDS011;5029;47.378;11.776;2022-08-01T13:36:05;5.75;;;2.33;;
9976;SDS011;5029;47.378;11.776;2022-08-01T13:41:08;2.75;;;2.10;;
9976;SDS011;5029;47.378;11.776;2022-08-01T13:46:12;6.82;;;2.35;;
9976;SDS011;5029;47.378;11.776;2022-08-01T13:51:20;1.77;;;1.67;;
9976;SDS011;5029;47.378;11.776;2022-08-01T13:56:23;2.72;;;1.77;;
9976;SDS011;5029;47.378;11.776;2022-08-01T14:01:29;4.85;;;2.25;;
9976;SDS011;5029;47.378;11.776;2022-08-01T14:06:36;3.38;;;1.80;;
9976;SDS011;5029;47.378;11.776;2022-08-01T14:11:42;4.03;;;1.90;;
9976;SDS011;5029;47.378;11.776;2022-08-01T14:16:46;2.90;;;2.10;;
9976;SDS011;5029;47.378;11.776;2022-08-01T14:21:51;2.03;;;1.83;;
9976;SDS011;5029;47.378;11.776;2022-08-01T14:26:54;4.10;;;1.83;;
9976;SDS011;5029;47.378;11.776;2022-08-01T14:31:58;3.08;;;2.03;;
9976;SDS011;5029;47.378;11.776;2022-08-01T14:37:03;1.83;;;1.70;;
9976;SDS011;5029;47.378;11.776;2022-08-01T14:42:08;3.78;;;1.90;;
9976;SDS011;5029;47.378;11.776;2022-08-01T14:47:12;2.95;;;2.10;;
9976;SDS011;5029;47.378;11.776;2022-08-01T14:52:24;2.17;;;1.98;;
9976;SDS011;5029;47.378;11.776;2022-08-01T14:57:27;2.17;;;1.88;;
9976;SDS011;5029;47.378;11.776;2022-08-01T15:02:31;2.20;;;1.92;;
9976;SDS011;5029;47.378;11.776;2022-08-01T15:07:36;3.22;;;2.08;;
9976;SDS011;5029;47.378;11.776;2022-08-01T15:12:54;2.67;;;1.90;;
9976;SDS011;5029;47.378;11.776;2022-08-01T15:17:59;2.15;;;1.75;;
9976;SDS011;5029;47.378;11.776;2022-08-01T15:23:04;3.45;;;1.85;;
9976;SDS011;5029;47.378;11.776;2022-08-01T15:28:07;1.88;;;1.75;;
9976;SDS011;5029;47.378;11.776;2022-08-01T15:33:11;2.15;;;1.83;;
9976;SDS011;5029;47.378;11.776;2022-08-01T15:38:16;2.95;;;1.80;;
9976;SDS011;5029;47.378;11.776;2022-08-01T15:43:20;1.88;;;1.75;;
9976;SDS011;5029;47.378;11.776;2022-08-01T15:48:27;3.13;;;2.35;;
9976;SDS011;5029;47.378;11.776;2022-08-01T15:53:32;2.17;;;1.90;;
9976;SDS011;5029;47.378;11.776;2022-08-01T15:58:35;2.20;;;1.88;;
9976;SDS011;5029;47.378;11.776;2022-08-01T16:03:39;4.53;;;2.20;;
9976;SDS011;5029;47.378;11.776;2022-08-01T16:08:44;2.45;;;2.20;;
9976;SDS011;5029;47.378;11.776;2022-08-01T16:13:48;4.43;;;2.05;;
9976;SDS011;5029;47.378;11.776;2022-08-01T16:18:52;2.10;;;1.90;;
9976;SDS011;5029;47.378;11.776;2022-08-01T16:23:57;2.65;;;1.90;;
9976;SDS011;5029;47.378;11.776;2022-08-01T16:29:00;2.25;;;1.98;;
9976;SDS011;5029;47.378;11.776;2022-08-01T16:34:04;2.03;;;1.92;;
9976;SDS011;5029;47.378;11.776;2022-08-01T16:39:11;2.13;;;1.92;;
9976;SDS011;5029;47.378;11.776;2022-08-01T16:44:17;2.30;;;1.80;;
9976;SDS011;5029;47.378;11.776;2022-08-01T16:49:34;3.78;;;2.17;;
9976;SDS011;5029;47.378;11.776;2022-08-01T16:54:39;2.80;;;2.03;;
9976;SDS011;5029;47.378;11.776;2022-08-01T16:59:42;2.03;;;1.80;;
9976;SDS011;5029;47.378;11.776;2022-08-01T17:04:46;2.65;;;1.80;;
9976;SDS011;5029;47.378;11.776;2022-08-01T17:09:51;7.30;;;2.72;;
9976;SDS011;5029;47.378;11.776;2022-08-01T17:14:58;4.95;;;3.10;;
9976;SDS011;5029;47.378;11.776;2022-08-01T17:20:02;3.13;;;2.40;;
9976;SDS011;5029;47.378;11.776;2022-08-01T17:25:08;6.30;;;2.83;;
9976;SDS011;5029;47.378;11.776;2022-08-01T17:30:16;3.27;;;2.87;;
9976;SDS011;5029;47.378;11.776;2022-08-01T17:35:20;3.30;;;2.60;;
9976;SDS011;5029;47.378;11.776;2022-08-01T17:40:25;3.33;;;2.70;;
9976;SDS011;5029;47.378;11.776;2022-08-01T17:45:40;5.60;;;2.63;;
9976;SDS011;5029;47.378;11.776;2022-08-01T17:50:51;4.33;;;2.90;;
9976;SDS011;5029;47.378;11.776;2022-08-01T17:55:56;2.70;;;2.50;;
9976;SDS011;5029;47.378;11.776;2022-08-01T18:01:02;3.10;;;2.27;;
9976;SDS011;5029;47.378;11.776;2022-08-01T18:06:08;5.23;;;2.20;;
9976;SDS011;5029;47.378;11.776;2022-08-01T18:11:16;2.20;;;2.00;;
9976;SDS011;5029;47.378;11.776;2022-08-01T18:16:21;3.80;;;2.20;;
9976;SDS011;5029;47.378;11.776;2022-08-01T18:21:25;2.20;;;2.00;;
9976;SDS011;5029;47.378;11.776;2022-08-01T18:26:31;4.60;;;2.43;;
9976;SDS011;5029;47.378;11.776;2022-08-01T18:31:35;2.00;;;1.90;;
9976;SDS011;5029;47.378;11.776;2022-08-01T18:36:39;2.30;;;2.10;;
9976;SDS011;5029;47.378;11.776;2022-08-01T18:41:46;3.07;;;2.10;;
9976;SDS011;5029;47.378;11.776;2022-08-01T18:46:49;3.80;;;1.90;;
9976;SDS011;5029;47.378;11.776;2022-08-01T18:51:55;2.50;;;1.83;;
9976;SDS011;5029;47.378;11.776;2022-08-01T18:57:00;1.90;;;1.80;;
9976;SDS011;5029;47.378;11.776;2022-08-01T19:02:04;3.90;;;1.87;;
9976;SDS011;5029;47.378;11.776;2022-08-01T19:07:08;2.57;;;1.97;;
9976;SDS011;5029;47.378;11.776;2022-08-01T19:12:13;3.23;;;2.10;;
9976;SDS011;5029;47.378;11.776;2022-08-01T19:17:17;2.17;;;1.97;;
9976;SDS011;5029;47.378;11.776;2022-08-01T19:22:22;2.37;;;2.10;;
9976;SDS011;5029;47.378;11.776;2022-08-01T19:27:31;2.10;;;1.90;;
9976;SDS011;5029;47.378;11.776;2022-08-01T19:32:38;3.30;;;2.00;;
9976;SDS011;5029;47.378;11.776;2022-08-01T19:37:44;2.30;;;2.10;;
9976;SDS011;5029;47.378;11.776;2022-08-01T19:42:56;2.93;;;2.20;;
9976;SDS011;5029;47.378;11.776;2022-08-01T19:48:00;2.57;;;2.20;;
9976;SDS011;5029;47.378;11.776;2022-08-01T19:53:04;3.47;;;2.07;;
9976;SDS011;5029;47.378;11.776;2022-08-01T19:58:13;4.30;;;2.40;;
9976;SDS011;5029;47.378;11.776;2022-08-01T20:03:29;3.73;;;2.40;;
9976;SDS011;5029;47.378;11.776;2022-08-01T20:08:36;2.40;;;2.20;;
9976;SDS011;5029;47.378;11.776;2022-08-01T20:13:42;2.67;;;2.10;;
9976;SDS011;5029;47.378;11.776;2022-08-01T20:18:46;3.47;;;2.20;;
9976;SDS011;5029;47.378;11.776;2022-08-01T20:23:49;3.03;;;2.73;;
9976;SDS011;5029;47.378;11.776;2022-08-01T20:29:04;2.97;;;2.77;;
9976;SDS011;5029;47.378;11.776;2022-08-01T20:34:08;4.70;;;3.27;;
9976;SDS011;5029;47.378;11.776;2022-08-01T20:39:16;3.60;;;3.30;;
9976;SDS011;5029;47.378;11.776;2022-08-01T20:44:24;4.10;;;3.23;;
9976;SDS011;5029;47.378;11.776;2022-08-01T20:49:33;5.63;;;3.30;;
9976;SDS011;5029;47.378;11.776;2022-08-01T20:54:39;5.60;;;3.00;;
9976;SDS011;5029;47.378;11.776;2022-08-01T20:59:46;3.33;;;2.93;;
9976;SDS011;5029;47.378;11.776;2022-08-01T21:04:59;3.20;;;2.90;;
9976;SDS011;5029;47.378;11.776;2022-08-01T21:10:07;3.20;;;2.90;;
9976;SDS011;5029;47.378;11.776;2022-08-01T21:15:15;2.73;;;2.53;;
9976;SDS011;5029;47.378;11.776;2022-08-01T21:20:26;3.97;;;2.87;;
9976;SDS011;5029;47.378;11.776;2022-08-01T21:25:32;4.10;;;2.97;;
9976;SDS011;5029;47.378;11.776;2022-08-01T21:30:38;3.77;;;3.17;;
9976;SDS011;5029;47.378;11.776;2022-08-01T21:35:57;3.90;;;3.60;;
9976;SDS011;5029;47.378;11.776;2022-08-01T21:41:07;4.30;;;3.77;;
9976;SDS011;5029;47.378;11.776;2022-08-01T21:46:12;5.60;;;3.67;;
9976;SDS011;5029;47.378;11.776;2022-08-01T21:51:23;5.07;;;3.17;;
9976;SDS011;5029;47.378;11.776;2022-08-01T21:56:35;6.37;;;3.53;;
9976;SDS011;5029;47.378;11.776;2022-08-01T22:01:50;3.63;;;2.90;;
9976;SDS011;5029;47.378;11.776;2022-08-01T22:06:58;3.30;;;3.00;;
9976;SDS011;5029;47.378;11.776;2022-08-01T22:12:04;3.10;;;2.80;;
9976;SDS011;5029;47.378;11.776;2022-08-01T22:17:11;4.43;;;2.50;;
9976;SDS011;5029;47.378;11.776;2022-08-01T22:22:19;5.73;;;2.83;;
9976;SDS011;5029;47.378;11.776;2022-08-01T22:27:43;3.40;;;3.10;;
9976;SDS011;5029;47.378;11.776;2022-08-01T22:33:09;3.27;;;2.70;;
9976;SDS011;5029;47.378;11.776;2022-08-01T22:38:18;4.13;;;2.93;;
9976;SDS011;5029;47.378;11.776;2022-08-01T22:43:24;3.40;;;3.10;;
9976;SDS011;5029;47.378;11.776;2022-08-01T22:48:35;3.37;;;3.07;;
9976;SDS011;5029;47.378;11.776;2022-08-01T22:53:45;3.17;;;2.97;;
9976;SDS011;5029;47.378;11.776;2022-08-01T22:58:56;3.70;;;3.40;;
9976;SDS011;5029;47.378;11.776;2022-08-01T23:04:04;3.20;;;2.90;;
9976;SDS011;5029;47.378;11.776;2022-08-01T23:09:13;3.93;;;3.50;;
9976;SDS011;5029;47.378;11.776;2022-08-01T23:14:17;3.67;;;3.37;;
9976;SDS011;5029;47.378;11.776;2022-08-01T23:19:24;2.90;;;2.70;;
9976;SDS011;5029;47.378;11.776;2022-08-01T23:24:29;3.73;;;2.60;;
9976;SDS011;5029;47.378;11.776;2022-08-01T23:29:34;2.83;;;2.53;;
9976;SDS011;5029;47.378;11.776;2022-08-01T23:34:39;3.20;;;2.90;;
9976;SDS011;5029;47.378;11.776;2022-08-01T23:39:43;5.17;;;3.47;;
9976;SDS011;5029;47.378;11.776;2022-08-01T23:44:47;4.60;;;3.70;;
9976;SDS011;5029;47.378;11.776;2022-08-01T23:49:52;5.03;;;3.63;;
9976;SDS011;5029;47.378;11.776;2022-08-01T23:54:55;4.43;;;3.10;;
